sensor_id;sensor_type;location;lat;lon;timestamp;P1;durP1;ratioP1;P2;durP2;ratioP2
9801;SDS011;4940;50.900;4.672;2023-05-07T00:00:05;14.15;;;12.75;;
9801;SDS011;4940;50.900;4.672;2023-05-07T00:02:34;14.05;;;12.85;;
9801;SDS011;4940;50.900;4.672;2023-05-07T00:05:02;13.70;;;12.50;;
9801;SDS011;4940;50.900;4.672;2023-05-07T00:07:30;14.88;;;13.57;;
9801;SDS011;4940;50.900;4.672;2023-05-07T00:09:59;14.75;;;13.50;;
9801;SDS011;4940;50.900;4.672;2023-05-07T00:12:26;15.75;;;14.52;;
9801;SDS011;4940;50.900;4.672;2023-05-07T00:14:56;15.70;;;14.07;;
9801;SDS011;4940;50.900;4.672;2023-05-07T00:17:24;16.55;;;15.02;;
9801;SDS011;4940;50.900;4.672;2023-05-07T00:19:51;17.20;;;15.85;;
9801;SDS011;4940;50.900;4.672;2023-05-07T00:22:19;19.65;;;18.35;;
9801;SDS011;4940;50.900;4.672;2023-05-07T00:24:46;18.77;;;17.40;;
9801;SDS011;4940;50.900;4.672;2023-05-07T00:27:15;18.80;;;17.20;;
9801;SDS011;4940;50.900;4.672;2023-05-07T00:29:42;19.52;;;18.13;;
9801;SDS011;4940;50.900;4.672;2023-05-07T00:32:10;18.95;;;17.50;;
9801;SDS011;4940;50.900;4.672;2023-05-07T00:34:37;17.80;;;16.58;;
9801;SDS011;4940;50.900;4.672;2023-05-07T00:37:05;17.60;;;16.00;;
9801;SDS011;4940;50.900;4.672;2023-05-07T00:39:34;19.15;;;17.85;;
9801;SDS011;4940;50.900;4.672;2023-05-07T00:42:01;20.52;;;18.67;;
9801;SDS011;4940;50.900;4.672;2023-05-07T00:44:30;18.65;;;17.05;;
9801;SDS011;4940;50.900;4.672;2023-05-07T00:46:58;19.17;;;17.63;;
9801;SDS011;4940;50.900;4.672;2023-05-07T00:49:25;19.73;;;18.33;;
9801;SDS011;4940;50.900;4.672;2023-05-07T00:51:59;20.38;;;18.67;;
9801;SDS011;4940;50.900;4.672;2023-05-07T00:54:27;22.10;;;20.40;;
9801;SDS011;4940;50.900;4.672;2023-05-07T00:56:54;23.75;;;21.80;;
9801;SDS011;4940;50.900;4.672;2023-05-07T00:59:22;22.90;;;21.38;;
9801;SDS011;4940;50.900;4.672;2023-05-07T01:01:51;23.40;;;21.65;;
9801;SDS011;4940;50.900;4.672;2023-05-07T01:04:18;21.40;;;19.70;;
9801;SDS011;4940;50.900;4.672;2023-05-07T01:06:45;23.23;;;21.25;;
9801;SDS011;4940;50.900;4.672;2023-05-07T01:09:13;20.75;;;19.33;;
9801;SDS011;4940;50.900;4.672;2023-05-07T01:11:41;21.88;;;20.27;;
9801;SDS011;4940;50.900;4.672;2023-05-07T01:14:08;22.15;;;20.38;;
9801;SDS011;4940;50.900;4.672;2023-05-07T01:16:36;21.98;;;20.20;;
9801;SDS011;4940;50.900;4.672;2023-05-07T01:19:04;25.00;;;23.13;;
9801;SDS011;4940;50.900;4.672;2023-05-07T01:21:32;25.17;;;23.05;;
9801;SDS011;4940;50.900;4.672;2023-05-07T01:24:01;26.95;;;25.15;;
9801;SDS011;4940;50.900;4.672;2023-05-07T01:26:29;25.23;;;23.55;;
9801;SDS011;4940;50.900;4.672;2023-05-07T01:28:56;25.40;;;23.70;;
9801;SDS011;4940;50.900;4.672;2023-05-07T01:31:24;27.05;;;25.25;;
9801;SDS011;4940;50.900;4.672;2023-05-07T01:33:52;27.33;;;25.20;;
9801;SDS011;4940;50.900;4.672;2023-05-07T01:36:20;26.02;;;24.38;;
9801;SDS011;4940;50.900;4.672;2023-05-07T01:38:51;28.02;;;25.90;;
9801;SDS011;4940;50.900;4.672;2023-05-07T01:41:20;30.83;;;28.30;;
9801;SDS011;4940;50.900;4.672;2023-05-07T01:43:50;29.42;;;27.30;;
9801;SDS011;4940;50.900;4.672;2023-05-07T01:46:18;29.38;;;27.27;;
9801;SDS011;4940;50.900;4.672;2023-05-07T01:48:46;29.52;;;27.45;;
9801;SDS011;4940;50.900;4.672;2023-05-07T01:51:14;31.23;;;29.17;;
9801;SDS011;4940;50.900;4.672;2023-05-07T01:53:41;32.60;;;30.23;;
9801;SDS011;4940;50.900;4.672;2023-05-07T01:56:09;33.15;;;30.75;;
9801;SDS011;4940;50.900;4.672;2023-05-07T01:58:37;34.65;;;32.38;;
9801;SDS011;4940;50.900;4.672;2023-05-07T02:01:05;32.95;;;30.85;;
9801;SDS011;4940;50.900;4.672;2023-05-07T02:03:32;34.25;;;31.90;;
9801;SDS011;4940;50.900;4.672;2023-05-07T02:06:00;30.90;;;28.90;;
9801;SDS011;4940;50.900;4.672;2023-05-07T02:08:27;32.38;;;30.17;;
9801;SDS011;4940;50.900;4.672;2023-05-07T02:10:55;34.15;;;31.73;;
9801;SDS011;4940;50.900;4.672;2023-05-07T02:13:22;34.58;;;32.17;;
9801;SDS011;4940;50.900;4.672;2023-05-07T02:15:51;35.30;;;33.03;;
9801;SDS011;4940;50.900;4.672;2023-05-07T02:18:19;36.08;;;33.30;;
9801;SDS011;4940;50.900;4.672;2023-05-07T02:20:46;38.45;;;35.85;;
9801;SDS011;4940;50.900;4.672;2023-05-07T02:23:14;39.55;;;36.67;;
9801;SDS011;4940;50.900;4.672;2023-05-07T02:25:41;36.88;;;34.47;;
9801;SDS011;4940;50.900;4.672;2023-05-07T02:28:09;36.03;;;33.63;;
9801;SDS011;4940;50.900;4.672;2023-05-07T02:30:36;37.63;;;34.92;;
9801;SDS011;4940;50.900;4.672;2023-05-07T02:33:05;36.13;;;33.33;;
9801;SDS011;4940;50.900;4.672;2023-05-07T02:35:33;37.53;;;35.05;;
9801;SDS011;4940;50.900;4.672;2023-05-07T02:38:00;34.80;;;32.53;;
9801;SDS011;4940;50.900;4.672;2023-05-07T02:40:28;37.80;;;35.22;;
9801;SDS011;4940;50.900;4.672;2023-05-07T02:42:58;38.33;;;35.67;;
9801;SDS011;4940;50.900;4.672;2023-05-07T02:45:26;38.38;;;35.70;;
9801;SDS011;4940;50.900;4.672;2023-05-07T02:47:53;36.67;;;34.13;;
9801;SDS011;4940;50.900;4.672;2023-05-07T02:50:22;38.15;;;35.45;;
9801;SDS011;4940;50.900;4.672;2023-05-07T02:52:49;36.45;;;33.60;;
9801;SDS011;4940;50.900;4.672;2023-05-07T02:55:17;35.67;;;33.35;;
9801;SDS011;4940;50.900;4.672;2023-05-07T02:57:44;36.53;;;34.03;;
9801;SDS011;4940;50.900;4.672;2023-05-07T03:00:12;33.38;;;31.27;;
9801;SDS011;4940;50.900;4.672;2023-05-07T03:02:41;36.78;;;34.40;;
9801;SDS011;4940;50.900;4.672;2023-05-07T03:05:08;32.75;;;30.48;;
9801;SDS011;4940;50.900;4.672;2023-05-07T03:07:37;31.27;;;28.98;;
9801;SDS011;4940;50.900;4.672;2023-05-07T03:10:05;31.58;;;29.35;;
9801;SDS011;4940;50.900;4.672;2023-05-07T03:12:33;30.63;;;28.52;;
9801;SDS011;4940;50.900;4.672;2023-05-07T03:15:00;31.63;;;29.48;;
9801;SDS011;4940;50.900;4.672;2023-05-07T03:17:27;31.15;;;29.13;;
9801;SDS011;4940;50.900;4.672;2023-05-07T03:19:55;33.90;;;31.80;;
9801;SDS011;4940;50.900;4.672;2023-05-07T03:22:22;35.05;;;32.75;;
9801;SDS011;4940;50.900;4.672;2023-05-07T03:24:51;36.92;;;34.42;;
9801;SDS011;4940;50.900;4.672;2023-05-07T03:27:18;35.33;;;33.03;;
9801;SDS011;4940;50.900;4.672;2023-05-07T03:29:46;36.60;;;34.22;;
9801;SDS011;4940;50.900;4.672;2023-05-07T03:32:13;37.92;;;35.40;;
9801;SDS011;4940;50.900;4.672;2023-05-07T03:34:41;35.60;;;33.10;;
9801;SDS011;4940;50.900;4.672;2023-05-07T03:37:08;35.10;;;32.60;;
9801;SDS011;4940;50.900;4.672;2023-05-07T03:39:36;34.08;;;31.58;;
9801;SDS011;4940;50.900;4.672;2023-05-07T03:42:04;35.22;;;32.78;;
9801;SDS011;4940;50.900;4.672;2023-05-07T03:44:32;36.00;;;33.47;;
9801;SDS011;4940;50.900;4.672;2023-05-07T03:47:01;36.42;;;33.80;;
9801;SDS011;4940;50.900;4.672;2023-05-07T03:49:28;37.95;;;35.25;;
9801;SDS011;4940;50.900;4.672;2023-05-07T03:51:56;40.08;;;37.40;;
9801;SDS011;4940;50.900;4.672;2023-05-07T03:54:23;42.78;;;39.65;;
9801;SDS011;4940;50.900;4.672;2023-05-07T03:56:50;40.83;;;38.03;;
9801;SDS011;4940;50.900;4.672;2023-05-07T03:59:19;39.08;;;36.17;;
9801;SDS011;4940;50.900;4.672;2023-05-07T04:01:46;40.25;;;37.63;;
9801;SDS011;4940;50.900;4.672;2023-05-07T04:04:14;37.83;;;35.22;;
9801;SDS011;4940;50.900;4.672;2023-05-07T04:06:42;37.80;;;35.08;;
9801;SDS011;4940;50.900;4.672;2023-05-07T04:09:09;39.58;;;36.88;;
9801;SDS011;4940;50.900;4.672;2023-05-07T04:11:37;43.75;;;40.25;;
9801;SDS011;4940;50.900;4.672;2023-05-07T04:14:05;48.65;;;45.28;;
9801;SDS011;4940;50.900;4.672;2023-05-07T04:16:34;41.05;;;38.20;;
9801;SDS011;4940;50.900;4.672;2023-05-07T04:19:01;45.05;;;41.65;;
9801;SDS011;4940;50.900;4.672;2023-05-07T04:21:28;46.25;;;42.97;;
9801;SDS011;4940;50.900;4.672;2023-05-07T04:23:56;47.20;;;43.88;;
9801;SDS011;4940;50.900;4.672;2023-05-07T04:26:23;45.25;;;41.80;;
9801;SDS011;4940;50.900;4.672;2023-05-07T04:28:51;38.88;;;35.97;;
9801;SDS011;4940;50.900;4.672;2023-05-07T04:31:18;38.40;;;35.70;;
9801;SDS011;4940;50.900;4.672;2023-05-07T04:33:47;36.42;;;33.75;;
9801;SDS011;4940;50.900;4.672;2023-05-07T04:36:15;35.78;;;33.05;;
9801;SDS011;4940;50.900;4.672;2023-05-07T04:38:43;36.08;;;33.42;;
9801;SDS011;4940;50.900;4.672;2023-05-07T04:41:12;35.17;;;32.60;;
9801;SDS011;4940;50.900;4.672;2023-05-07T04:43:40;33.10;;;30.80;;
9801;SDS011;4940;50.900;4.672;2023-05-07T04:46:08;34.40;;;31.80;;
9801;SDS011;4940;50.900;4.672;2023-05-07T04:48:35;33.17;;;30.75;;
9801;SDS011;4940;50.900;4.672;2023-05-07T04:51:04;34.88;;;32.38;;
9801;SDS011;4940;50.900;4.672;2023-05-07T04:53:32;33.28;;;30.88;;
9801;SDS011;4940;50.900;4.672;2023-05-07T04:55:59;35.20;;;32.60;;
9801;SDS011;4940;50.900;4.672;2023-05-07T04:58:27;34.47;;;31.98;;
9801;SDS011;4940;50.900;4.672;2023-05-07T05:00:57;35.28;;;32.88;;
9801;SDS011;4940;50.900;4.672;2023-05-07T05:03:24;33.42;;;30.95;;
9801;SDS011;4940;50.900;4.672;2023-05-07T05:05:52;31.70;;;29.10;;
9801;SDS011;4940;50.900;4.672;2023-05-07T05:08:20;30.90;;;28.45;;
9801;SDS011;4940;50.900;4.672;2023-05-07T05:10:48;29.35;;;27.25;;
9801;SDS011;4940;50.900;4.672;2023-05-07T05:13:15;27.88;;;25.48;;
9801;SDS011;4940;50.900;4.672;2023-05-07T05:15:42;27.25;;;25.23;;
9801;SDS011;4940;50.900;4.672;2023-05-07T05:18:10;25.85;;;23.58;;
9801;SDS011;4940;50.900;4.672;2023-05-07T05:20:38;23.35;;;21.60;;
9801;SDS011;4940;50.900;4.672;2023-05-07T05:23:05;24.77;;;22.55;;
9801;SDS011;4940;50.900;4.672;2023-05-07T05:25:34;25.02;;;23.02;;
9801;SDS011;4940;50.900;4.672;2023-05-07T05:28:02;25.15;;;23.20;;
9801;SDS011;4940;50.900;4.672;2023-05-07T05:30:30;25.02;;;23.00;;
9801;SDS011;4940;50.900;4.672;2023-05-07T05:32:57;23.98;;;21.98;;
9801;SDS011;4940;50.900;4.672;2023-05-07T05:35:25;22.80;;;20.92;;
9801;SDS011;4940;50.900;4.672;2023-05-07T05:37:52;22.77;;;20.45;;
9801;SDS011;4940;50.900;4.672;2023-05-07T05:40:20;22.83;;;21.02;;
9801;SDS011;4940;50.900;4.672;2023-05-07T05:42:48;21.23;;;19.42;;
9801;SDS011;4940;50.900;4.672;2023-05-07T05:45:16;19.40;;;17.48;;
9801;SDS011;4940;50.900;4.672;2023-05-07T05:47:43;18.92;;;16.88;;
9801;SDS011;4940;50.900;4.672;2023-05-07T05:50:11;16.50;;;14.55;;
9801;SDS011;4940;50.900;4.672;2023-05-07T05:52:38;17.85;;;16.27;;
9801;SDS011;4940;50.900;4.672;2023-05-07T05:55:06;17.90;;;16.13;;
9801;SDS011;4940;50.900;4.672;2023-05-07T05:57:34;18.00;;;15.20;;
9801;SDS011;4940;50.900;4.672;2023-05-07T06:00:03;18.75;;;17.08;;
9801;SDS011;4940;50.900;4.672;2023-05-07T06:02:31;16.98;;;15.27;;
9801;SDS011;4940;50.900;4.672;2023-05-07T06:04:59;14.38;;;12.93;;
9801;SDS011;4940;50.900;4.672;2023-05-07T06:07:26;14.38;;;12.70;;
9801;SDS011;4940;50.900;4.672;2023-05-07T06:09:54;12.82;;;11.55;;
9801;SDS011;4940;50.900;4.672;2023-05-07T06:12:21;12.27;;;11.00;;
9801;SDS011;4940;50.900;4.672;2023-05-07T06:14:48;12.50;;;11.23;;
9801;SDS011;4940;50.900;4.672;2023-05-07T06:17:17;15.30;;;11.25;;
9801;SDS011;4940;50.900;4.672;2023-05-07T06:19:44;13.48;;;11.48;;
9801;SDS011;4940;50.900;4.672;2023-05-07T06:22:12;11.95;;;10.80;;
9801;SDS011;4940;50.900;4.672;2023-05-07T06:24:39;12.15;;;9.93;;
9801;SDS011;4940;50.900;4.672;2023-05-07T06:27:07;11.93;;;9.65;;
9801;SDS011;4940;50.900;4.672;2023-05-07T06:29:34;10.13;;;9.05;;
9801;SDS011;4940;50.900;4.672;2023-05-07T06:32:07;10.77;;;7.68;;
9801;SDS011;4940;50.900;4.672;2023-05-07T06:34:36;10.20;;;7.40;;
9801;SDS011;4940;50.900;4.672;2023-05-07T06:37:04;10.55;;;7.63;;
9801;SDS011;4940;50.900;4.672;2023-05-07T06:39:32;9.18;;;6.22;;
9801;SDS011;4940;50.900;4.672;2023-05-07T06:41:59;9.20;;;6.10;;
9801;SDS011;4940;50.900;4.672;2023-05-07T06:44:27;8.82;;;5.72;;
9801;SDS011;4940;50.900;4.672;2023-05-07T06:46:54;9.48;;;6.82;;
9801;SDS011;4940;50.900;4.672;2023-05-07T06:49:21;10.65;;;7.15;;
9801;SDS011;4940;50.900;4.672;2023-05-07T06:51:50;8.00;;;6.25;;
9801;SDS011;4940;50.900;4.672;2023-05-07T06:54:17;11.00;;;6.15;;
9801;SDS011;4940;50.900;4.672;2023-05-07T06:56:45;10.98;;;7.28;;
9801;SDS011;4940;50.900;4.672;2023-05-07T06:59:13;7.80;;;6.28;;
9801;SDS011;4940;50.900;4.672;2023-05-07T07:01:40;9.48;;;5.82;;
9801;SDS011;4940;50.900;4.672;2023-05-07T07:04:07;6.93;;;5.57;;
9801;SDS011;4940;50.900;4.672;2023-05-07T07:06:35;5.20;;;4.60;;
9801;SDS011;4940;50.900;4.672;2023-05-07T07:09:03;6.28;;;4.60;;
9801;SDS011;4940;50.900;4.672;2023-05-07T07:11:31;5.60;;;4.32;;
9801;SDS011;4940;50.900;4.672;2023-05-07T07:13:58;8.05;;;4.47;;
9801;SDS011;4940;50.900;4.672;2023-05-07T07:16:26;7.28;;;4.30;;
9801;SDS011;4940;50.900;4.672;2023-05-07T07:18:53;6.40;;;4.47;;
9801;SDS011;4940;50.900;4.672;2023-05-07T07:21:21;7.68;;;4.32;;
9801;SDS011;4940;50.900;4.672;2023-05-07T07:23:48;6.28;;;4.28;;
9801;SDS011;4940;50.900;4.672;2023-05-07T07:26:17;7.40;;;5.25;;
9801;SDS011;4940;50.900;4.672;2023-05-07T07:28:44;9.43;;;5.40;;
9801;SDS011;4940;50.900;4.672;2023-05-07T07:31:12;6.93;;;5.35;;
9801;SDS011;4940;50.900;4.672;2023-05-07T07:33:40;6.68;;;5.80;;
9801;SDS011;4940;50.900;4.672;2023-05-07T07:36:07;11.27;;;5.75;;
9801;SDS011;4940;50.900;4.672;2023-05-07T07:38:35;8.68;;;5.20;;
9801;SDS011;4940;50.900;4.672;2023-05-07T07:41:03;5.22;;;4.53;;
9801;SDS011;4940;50.900;4.672;2023-05-07T07:43:31;7.78;;;4.60;;
9801;SDS011;4940;50.900;4.672;2023-05-07T07:45:58;6.05;;;5.10;;
9801;SDS011;4940;50.900;4.672;2023-05-07T07:48:26;11.05;;;5.07;;
9801;SDS011;4940;50.900;4.672;2023-05-07T07:50:53;10.07;;;5.38;;
9801;SDS011;4940;50.900;4.672;2023-05-07T07:53:21;8.82;;;5.10;;
9801;SDS011;4940;50.900;4.672;2023-05-07T07:55:48;8.45;;;6.05;;
9801;SDS011;4940;50.900;4.672;2023-05-07T07:58:16;6.80;;;4.72;;
9801;SDS011;4940;50.900;4.672;2023-05-07T08:00:44;7.40;;;5.18;;
9801;SDS011;4940;50.900;4.672;2023-05-07T08:03:12;6.30;;;4.70;;
9801;SDS011;4940;50.900;4.672;2023-05-07T08:05:41;5.85;;;4.40;;
9801;SDS011;4940;50.900;4.672;2023-05-07T08:08:09;6.88;;;5.13;;
9801;SDS011;4940;50.900;4.672;2023-05-07T08:10:36;6.50;;;4.88;;
9801;SDS011;4940;50.900;4.672;2023-05-07T08:13:04;10.82;;;6.50;;
9801;SDS011;4940;50.900;4.672;2023-05-07T08:15:32;9.52;;;6.75;;
9801;SDS011;4940;50.900;4.672;2023-05-07T08:18:01;8.15;;;7.32;;
9801;SDS011;4940;50.900;4.672;2023-05-07T08:20:29;10.15;;;8.70;;
9801;SDS011;4940;50.900;4.672;2023-05-07T08:22:56;11.30;;;9.45;;
9801;SDS011;4940;50.900;4.672;2023-05-07T08:25:23;11.57;;;10.57;;
9801;SDS011;4940;50.900;4.672;2023-05-07T08:27:51;12.40;;;11.30;;
9801;SDS011;4940;50.900;4.672;2023-05-07T08:30:18;16.27;;;14.63;;
9801;SDS011;4940;50.900;4.672;2023-05-07T08:32:46;15.00;;;13.90;;
9801;SDS011;4940;50.900;4.672;2023-05-07T08:35:15;16.10;;;14.57;;
9801;SDS011;4940;50.900;4.672;2023-05-07T08:37:42;19.45;;;18.05;;
9801;SDS011;4940;50.900;4.672;2023-05-07T08:40:10;21.65;;;20.35;;
9801;SDS011;4940;50.900;4.672;2023-05-07T08:42:38;22.15;;;20.75;;
9801;SDS011;4940;50.900;4.672;2023-05-07T08:45:08;17.90;;;16.77;;
9801;SDS011;4940;50.900;4.672;2023-05-07T08:47:39;20.92;;;19.73;;
9801;SDS011;4940;50.900;4.672;2023-05-07T08:50:10;21.75;;;20.25;;
9801;SDS011;4940;50.900;4.672;2023-05-07T08:52:39;18.63;;;17.27;;
9801;SDS011;4940;50.900;4.672;2023-05-07T08:55:06;24.00;;;22.45;;
9801;SDS011;4940;50.900;4.672;2023-05-07T08:57:35;23.63;;;22.00;;
9801;SDS011;4940;50.900;4.672;2023-05-07T09:00:02;23.15;;;21.65;;
9801;SDS011;4940;50.900;4.672;2023-05-07T09:02:31;23.92;;;22.48;;
9801;SDS011;4940;50.900;4.672;2023-05-07T09:04:59;25.00;;;23.52;;
9801;SDS011;4940;50.900;4.672;2023-05-07T09:07:26;27.52;;;25.73;;
9801;SDS011;4940;50.900;4.672;2023-05-07T09:09:55;27.25;;;25.55;;
9801;SDS011;4940;50.900;4.672;2023-05-07T09:12:23;28.95;;;27.17;;
9801;SDS011;4940;50.900;4.672;2023-05-07T09:14:50;34.20;;;31.85;;
9801;SDS011;4940;50.900;4.672;2023-05-07T09:17:18;35.63;;;33.22;;
9801;SDS011;4940;50.900;4.672;2023-05-07T09:19:45;35.28;;;32.95;;
9801;SDS011;4940;50.900;4.672;2023-05-07T09:22:13;34.03;;;31.80;;
9801;SDS011;4940;50.900;4.672;2023-05-07T09:24:40;34.67;;;32.50;;
9801;SDS011;4940;50.900;4.672;2023-05-07T09:27:09;36.10;;;33.70;;
9801;SDS011;4940;50.900;4.672;2023-05-07T09:29:38;35.67;;;33.47;;
9801;SDS011;4940;50.900;4.672;2023-05-07T09:32:06;36.17;;;33.65;;
9801;SDS011;4940;50.900;4.672;2023-05-07T09:34:33;39.10;;;36.15;;
9801;SDS011;4940;50.900;4.672;2023-05-07T09:37:01;37.65;;;34.92;;
9801;SDS011;4940;50.900;4.672;2023-05-07T09:39:38;36.90;;;34.33;;
9801;SDS011;4940;50.900;4.672;2023-05-07T09:42:06;39.90;;;36.83;;
9801;SDS011;4940;50.900;4.672;2023-05-07T09:44:35;38.75;;;36.08;;
9801;SDS011;4940;50.900;4.672;2023-05-07T09:47:04;38.92;;;36.15;;
9801;SDS011;4940;50.900;4.672;2023-05-07T09:49:33;40.22;;;37.42;;
9801;SDS011;4940;50.900;4.672;2023-05-07T09:52:02;40.38;;;37.47;;
9801;SDS011;4940;50.900;4.672;2023-05-07T09:54:31;40.50;;;37.65;;
9801;SDS011;4940;50.900;4.672;2023-05-07T09:57:00;36.35;;;34.00;;
9801;SDS011;4940;50.900;4.672;2023-05-07T09:59:28;37.03;;;34.60;;
9801;SDS011;4940;50.900;4.672;2023-05-07T10:01:59;38.92;;;36.03;;
9801;SDS011;4940;50.900;4.672;2023-05-07T10:04:27;40.20;;;37.33;;
9801;SDS011;4940;50.900;4.672;2023-05-07T10:06:55;38.72;;;36.15;;
9801;SDS011;4940;50.900;4.672;2023-05-07T10:09:23;38.58;;;35.70;;
9801;SDS011;4940;50.900;4.672;2023-05-07T10:11:52;40.15;;;37.45;;
9801;SDS011;4940;50.900;4.672;2023-05-07T10:14:20;41.20;;;38.42;;
9801;SDS011;4940;50.900;4.672;2023-05-07T10:16:48;39.80;;;37.17;;
9801;SDS011;4940;50.900;4.672;2023-05-07T10:19:16;41.67;;;38.88;;
9801;SDS011;4940;50.900;4.672;2023-05-07T10:21:48;41.15;;;38.03;;
9801;SDS011;4940;50.900;4.672;2023-05-07T10:24:25;41.42;;;38.38;;
9801;SDS011;4940;50.900;4.672;2023-05-07T10:26:53;41.13;;;38.13;;
9801;SDS011;4940;50.900;4.672;2023-05-07T10:29:25;41.10;;;38.05;;
9801;SDS011;4940;50.900;4.672;2023-05-07T10:32:03;40.63;;;37.85;;
9801;SDS011;4940;50.900;4.672;2023-05-07T10:34:43;41.33;;;38.40;;
9801;SDS011;4940;50.900;4.672;2023-05-07T10:37:13;41.45;;;38.42;;
9801;SDS011;4940;50.900;4.672;2023-05-07T10:39:41;39.25;;;36.45;;
9801;SDS011;4940;50.900;4.672;2023-05-07T10:42:08;38.63;;;35.83;;
9801;SDS011;4940;50.900;4.672;2023-05-07T10:44:36;38.45;;;35.72;;
9801;SDS011;4940;50.900;4.672;2023-05-07T10:47:04;41.33;;;38.30;;
9801;SDS011;4940;50.900;4.672;2023-05-07T10:49:36;39.08;;;36.38;;
9801;SDS011;4940;50.900;4.672;2023-05-07T10:52:15;41.53;;;38.50;;
9801;SDS011;4940;50.900;4.672;2023-05-07T10:54:45;42.80;;;39.45;;
9801;SDS011;4940;50.900;4.672;2023-05-07T11:00:21;42.83;;;39.63;;
9801;SDS011;4940;50.900;4.672;2023-05-07T11:03:10;39.53;;;36.92;;
9801;SDS011;4940;50.900;4.672;2023-05-07T11:05:37;41.03;;;38.00;;
9801;SDS011;4940;50.900;4.672;2023-05-07T11:08:06;39.42;;;36.55;;
9801;SDS011;4940;50.900;4.672;2023-05-07T11:16:19;36.85;;;34.38;;
9801;SDS011;4940;50.900;4.672;2023-05-07T11:18:48;38.30;;;35.72;;
9801;SDS011;4940;50.900;4.672;2023-05-07T11:24:00;37.63;;;34.92;;
9801;SDS011;4940;50.900;4.672;2023-05-07T11:26:29;38.50;;;35.97;;
9801;SDS011;4940;50.900;4.672;2023-05-07T11:28:57;38.30;;;35.70;;
9801;SDS011;4940;50.900;4.672;2023-05-07T11:31:26;37.85;;;35.25;;
9801;SDS011;4940;50.900;4.672;2023-05-07T11:33:55;35.30;;;33.10;;
9801;SDS011;4940;50.900;4.672;2023-05-07T11:36:23;34.88;;;32.63;;
9801;SDS011;4940;50.900;4.672;2023-05-07T11:38:51;31.90;;;29.92;;
9801;SDS011;4940;50.900;4.672;2023-05-07T11:41:20;34.25;;;31.88;;
9801;SDS011;4940;50.900;4.672;2023-05-07T11:43:54;32.00;;;30.05;;
9801;SDS011;4940;50.900;4.672;2023-05-07T11:46:23;35.97;;;33.50;;
9801;SDS011;4940;50.900;4.672;2023-05-07T11:48:50;35.55;;;33.15;;
9801;SDS011;4940;50.900;4.672;2023-05-07T11:51:21;34.33;;;32.00;;
9801;SDS011;4940;50.900;4.672;2023-05-07T11:53:49;31.08;;;29.10;;
9801;SDS011;4940;50.900;4.672;2023-05-07T11:56:17;32.22;;;30.23;;
9801;SDS011;4940;50.900;4.672;2023-05-07T11:58:46;30.45;;;28.75;;
9801;SDS011;4940;50.900;4.672;2023-05-07T12:01:17;31.75;;;29.75;;
9801;SDS011;4940;50.900;4.672;2023-05-07T12:03:44;28.17;;;26.58;;
9801;SDS011;4940;50.900;4.672;2023-05-07T12:06:12;31.02;;;29.02;;
9801;SDS011;4940;50.900;4.672;2023-05-07T12:08:41;31.73;;;29.73;;
9801;SDS011;4940;50.900;4.672;2023-05-07T12:11:10;33.10;;;31.13;;
9801;SDS011;4940;50.900;4.672;2023-05-07T12:13:40;33.33;;;31.33;;
9801;SDS011;4940;50.900;4.672;2023-05-07T12:16:09;35.22;;;33.03;;
9801;SDS011;4940;50.900;4.672;2023-05-07T12:18:37;34.85;;;32.85;;
9801;SDS011;4940;50.900;4.672;2023-05-07T12:21:05;34.22;;;32.22;;
9801;SDS011;4940;50.900;4.672;2023-05-07T12:23:33;32.33;;;30.15;;
9801;SDS011;4940;50.900;4.672;2023-05-07T12:26:01;31.65;;;29.70;;
9801;SDS011;4940;50.900;4.672;2023-05-07T12:28:29;29.38;;;27.52;;
9801;SDS011;4940;50.900;4.672;2023-05-07T12:30:57;29.17;;;27.38;;
9801;SDS011;4940;50.900;4.672;2023-05-07T12:33:26;28.13;;;26.50;;
9801;SDS011;4940;50.900;4.672;2023-05-07T12:35:56;24.30;;;23.00;;
9801;SDS011;4940;50.900;4.672;2023-05-07T12:38:23;22.38;;;21.13;;
9801;SDS011;4940;50.900;4.672;2023-05-07T12:40:53;17.73;;;16.65;;
9801;SDS011;4940;50.900;4.672;2023-05-07T12:43:21;20.15;;;19.05;;
9801;SDS011;4940;50.900;4.672;2023-05-07T12:45:50;22.45;;;20.95;;
9801;SDS011;4940;50.900;4.672;2023-05-07T12:48:20;16.80;;;15.88;;
9801;SDS011;4940;50.900;4.672;2023-05-07T12:50:50;14.45;;;13.65;;
9801;SDS011;4940;50.900;4.672;2023-05-07T12:53:19;14.13;;;13.32;;
9801;SDS011;4940;50.900;4.672;2023-05-07T12:55:48;11.70;;;10.90;;
9801;SDS011;4940;50.900;4.672;2023-05-07T12:58:17;15.88;;;14.82;;
9801;SDS011;4940;50.900;4.672;2023-05-07T13:00:47;15.18;;;14.27;;
9801;SDS011;4940;50.900;4.672;2023-05-07T13:03:20;12.65;;;11.95;;
9801;SDS011;4940;50.900;4.672;2023-05-07T13:05:50;11.80;;;11.00;;
9801;SDS011;4940;50.900;4.672;2023-05-07T13:08:28;9.45;;;8.75;;
9801;SDS011;4940;50.900;4.672;2023-05-07T13:10:57;8.52;;;7.35;;
9801;SDS011;4940;50.900;4.672;2023-05-07T13:13:28;5.05;;;4.65;;
9801;SDS011;4940;50.900;4.672;2023-05-07T13:15:56;4.70;;;4.22;;
9801;SDS011;4940;50.900;4.672;2023-05-07T13:18:24;3.58;;;2.95;;
9801;SDS011;4940;50.900;4.672;2023-05-07T13:20:53;3.78;;;3.20;;
9801;SDS011;4940;50.900;4.672;2023-05-07T13:23:20;3.15;;;2.72;;
9801;SDS011;4940;50.900;4.672;2023-05-07T13:25:48;2.70;;;2.50;;
9801;SDS011;4940;50.900;4.672;2023-05-07T13:28:16;2.45;;;2.25;;
9801;SDS011;4940;50.900;4.672;2023-05-07T13:30:43;3.92;;;2.45;;
9801;SDS011;4940;50.900;4.672;2023-05-07T13:33:11;7.90;;;2.38;;
9801;SDS011;4940;50.900;4.672;2023-05-07T13:35:38;4.30;;;2.88;;
9801;SDS011;4940;50.900;4.672;2023-05-07T13:38:07;3.97;;;2.40;;
9801;SDS011;4940;50.900;4.672;2023-05-07T13:40:34;2.60;;;2.40;;
9801;SDS011;4940;50.900;4.672;2023-05-07T13:43:02;3.13;;;2.35;;
9801;SDS011;4940;50.900;4.672;2023-05-07T13:45:29;2.40;;;2.20;;
9801;SDS011;4940;50.900;4.672;2023-05-07T13:47:57;3.58;;;2.00;;
9801;SDS011;4940;50.900;4.672;2023-05-07T13:50:24;3.13;;;2.30;;
9801;SDS011;4940;50.900;4.672;2023-05-07T13:52:54;3.40;;;2.00;;
9801;SDS011;4940;50.900;4.672;2023-05-07T13:55:23;2.20;;;2.00;;
9801;SDS011;4940;50.900;4.672;2023-05-07T13:57:54;3.10;;;2.30;;
9801;SDS011;4940;50.900;4.672;2023-05-07T14:00:22;4.43;;;1.95;;
9801;SDS011;4940;50.900;4.672;2023-05-07T14:02:50;4.07;;;2.35;;
9801;SDS011;4940;50.900;4.672;2023-05-07T14:05:17;3.97;;;2.28;;
9801;SDS011;4940;50.900;4.672;2023-05-07T14:07:44;3.47;;;2.70;;
9801;SDS011;4940;50.900;4.672;2023-05-07T14:10:12;3.80;;;2.95;;
9801;SDS011;4940;50.900;4.672;2023-05-07T14:12:40;2.90;;;2.70;;
9801;SDS011;4940;50.900;4.672;2023-05-07T14:15:08;3.92;;;3.50;;
9801;SDS011;4940;50.900;4.672;2023-05-07T14:17:36;3.30;;;3.00;;
9801;SDS011;4940;50.900;4.672;2023-05-07T14:20:03;3.35;;;2.95;;
9801;SDS011;4940;50.900;4.672;2023-05-07T14:22:32;3.92;;;3.13;;
9801;SDS011;4940;50.900;4.672;2023-05-07T14:24:59;3.50;;;3.10;;
9801;SDS011;4940;50.900;4.672;2023-05-07T14:27:27;3.97;;;3.05;;
9801;SDS011;4940;50.900;4.672;2023-05-07T14:29:56;3.78;;;3.03;;
9801;SDS011;4940;50.900;4.672;2023-05-07T14:32:23;3.58;;;3.28;;
9801;SDS011;4940;50.900;4.672;2023-05-07T14:34:50;3.75;;;3.00;;
9801;SDS011;4940;50.900;4.672;2023-05-07T14:37:18;3.78;;;3.13;;
9801;SDS011;4940;50.900;4.672;2023-05-07T14:39:45;4.38;;;2.97;;
9801;SDS011;4940;50.900;4.672;2023-05-07T14:42:13;3.92;;;3.08;;
9801;SDS011;4940;50.900;4.672;2023-05-07T14:44:40;3.10;;;2.90;;
9801;SDS011;4940;50.900;4.672;2023-05-07T14:47:09;3.25;;;2.95;;
9801;SDS011;4940;50.900;4.672;2023-05-07T14:49:36;4.13;;;3.05;;
9801;SDS011;4940;50.900;4.672;2023-05-07T14:52:04;2.63;;;2.42;;
9801;SDS011;4940;50.900;4.672;2023-05-07T14:54:33;3.65;;;2.75;;
9801;SDS011;4940;50.900;4.672;2023-05-07T14:57:01;3.03;;;2.60;;
9801;SDS011;4940;50.900;4.672;2023-05-07T14:59:28;3.20;;;2.58;;
9801;SDS011;4940;50.900;4.672;2023-05-07T15:01:55;3.03;;;2.42;;
9801;SDS011;4940;50.900;4.672;2023-05-07T15:04:24;3.03;;;2.47;;
9801;SDS011;4940;50.900;4.672;2023-05-07T15:06:52;3.45;;;2.90;;
9801;SDS011;4940;50.900;4.672;2023-05-07T15:09:21;4.25;;;2.95;;
9801;SDS011;4940;50.900;4.672;2023-05-07T15:11:48;5.43;;;2.47;;